createdAt,value
2023-05-01T00:02:12.217Z,10.05
2023-05-01T00:04:39.207Z,6.43
2023-05-01T00:07:06.181Z,7.15
2023-05-01T00:09:33.399Z,5.60
2023-05-01T00:12:00.434Z,7.60
2023-05-01T00:14:28.213Z,5.63
2023-05-01T00:16:55.330Z,8.75
2023-05-01T00:19:22.305Z,5.85
2023-05-01T00:21:51.597Z,6.03
2023-05-01T00:24:18.627Z,5.55
2023-05-01T00:26:45.516Z,11.63
2023-05-01T00:29:13.334Z,6.18
2023-05-01T00:31:42.305Z,6.47
2023-05-01T00:34:10.488Z,5.22
2023-05-01T00:36:37.618Z,5.50
2023-05-01T00:39:07.824Z,8.00
2023-05-01T00:41:35.784Z,5.85
2023-05-01T00:44:03.244Z,10.27
2023-05-01T00:46:32.241Z,6.28
2023-05-01T00:48:59.401Z,8.90
2023-05-01T00:51:29.831Z,6.47
2023-05-01T00:53:59.798Z,7.82
2023-05-01T00:56:26.827Z,8.68
2023-05-01T00:58:55.289Z,5.55
2023-05-01T01:01:22.325Z,6.20
2023-05-01T01:03:51.635Z,5.78
2023-05-01T01:06:42.941Z,9.57
2023-05-01T01:09:32.990Z,6.30
2023-05-01T01:12:23.796Z,8.68
2023-05-01T01:15:16.507Z,6.35
2023-05-01T01:17:46.708Z,7.68
2023-05-01T01:20:30.630Z,15.57
2023-05-01T01:23:41.149Z,5.97
2023-05-01T01:26:13.797Z,6.22
2023-05-01T01:28:56.567Z,8.98
2023-05-01T01:31:32.663Z,6.68
2023-05-01T01:34:04.445Z,6.10
2023-05-01T01:36:34.796Z,6.63
2023-05-01T01:39:14.787Z,7.85
2023-05-01T01:41:47.685Z,6.93
2023-05-01T01:44:23.648Z,6.15
2023-05-01T01:46:53.034Z,6.22
2023-05-01T01:49:24.497Z,6.50
2023-05-01T01:51:53.380Z,8.70
2023-05-01T01:54:27.278Z,7.32
2023-05-01T01:56:56.757Z,6.72
2023-05-01T01:59:25.439Z,7.10
2023-05-01T02:01:58.968Z,6.95
2023-05-01T02:04:27.861Z,6.07
2023-05-01T02:07:00.033Z,7.50
2023-05-01T02:09:29.638Z,6.60
2023-05-01T02:11:57.518Z,6.55
2023-05-01T02:14:26.983Z,7.18
2023-05-01T02:16:58.775Z,7.72
2023-05-01T02:19:29.463Z,8.10
2023-05-01T02:21:58.282Z,7.45
2023-05-01T02:24:27.274Z,7.27
2023-05-01T02:27:12.450Z,7.75
2023-05-01T02:29:39.643Z,7.57
2023-05-01T02:32:06.704Z,7.70
2023-05-01T02:34:36.542Z,11.15
2023-05-01T02:37:06.249Z,6.97
2023-05-01T02:42:03.328Z,7.65
2023-05-01T02:47:07.850Z,9.57
2023-05-01T02:49:37.954Z,11.25
2023-05-01T02:52:06.001Z,7.97
2023-05-01T02:54:35.239Z,8.00
2023-05-01T02:57:05.382Z,7.88
2023-05-01T02:59:33.550Z,7.53
2023-05-01T03:02:00.455Z,8.73
2023-05-01T03:04:27.817Z,7.97
2023-05-01T03:06:55.767Z,8.05
2023-05-01T03:09:22.717Z,9.52
2023-05-01T03:11:49.813Z,9.20
2023-05-01T03:14:17.567Z,12.35
2023-05-01T03:16:44.752Z,7.45
2023-05-01T03:19:13.758Z,10.57
2023-05-01T03:21:40.890Z,7.35
2023-05-01T03:24:08.248Z,6.53
2023-05-01T03:26:36.109Z,8.52
2023-05-01T03:29:03.304Z,6.97
2023-05-01T03:31:31.487Z,5.55
2023-05-01T03:33:59.025Z,7.65
2023-05-01T03:36:26.650Z,7.88
2023-05-01T03:38:53.425Z,6.47
2023-05-01T03:41:20.190Z,6.13
2023-05-01T03:43:47.056Z,7.63
2023-05-01T03:46:13.937Z,7.68
2023-05-01T03:48:41.240Z,7.72
2023-05-01T03:51:08.388Z,9.77
2023-05-01T03:53:36.825Z,8.02
2023-05-01T03:56:04.666Z,7.78
2023-05-01T03:58:31.401Z,9.25
2023-05-01T04:01:00.809Z,10.38
2023-05-01T04:03:28.671Z,8.23
2023-05-01T04:05:56.013Z,7.72
2023-05-01T04:08:22.941Z,8.73
2023-05-01T04:10:49.660Z,8.57
2023-05-01T04:13:16.460Z,7.97
2023-05-01T04:15:47.420Z,7.15
2023-05-01T04:18:14.518Z,10.82
2023-05-01T04:20:41.440Z,9.60
2023-05-01T04:23:09.530Z,7.60
2023-05-01T04:25:37.010Z,8.40
2023-05-01T04:28:03.975Z,7.93
2023-05-01T04:30:33.841Z,7.65
2023-05-01T04:33:00.814Z,7.43
2023-05-01T04:35:30.027Z,7.85
2023-05-01T04:37:56.883Z,7.47
2023-05-01T04:40:23.923Z,8.27
2023-05-01T04:42:50.923Z,7.95
2023-05-01T04:45:18.093Z,10.93
2023-05-01T04:47:45.130Z,8.15
2023-05-01T04:50:12.158Z,7.93
2023-05-01T04:52:39.149Z,8.38
2023-05-01T04:55:09.350Z,8.80
2023-05-01T04:57:37.326Z,8.65
2023-05-01T05:00:05.145Z,8.10
2023-05-01T05:02:32.399Z,9.10
2023-05-01T05:04:59.304Z,8.48
2023-05-01T05:07:26.340Z,9.15
2023-05-01T05:09:53.447Z,8.07
2023-05-01T05:12:20.469Z,9.10
2023-05-01T05:14:48.024Z,8.90
2023-05-01T05:17:14.867Z,11.57
2023-05-01T05:19:41.613Z,9.35
2023-05-01T05:22:08.692Z,8.75
2023-05-01T05:24:35.690Z,9.60
2023-05-01T05:27:04.030Z,9.40
2023-05-01T05:29:31.022Z,8.75
2023-05-01T05:31:59.647Z,9.68
2023-05-01T05:34:27.643Z,9.48
2023-05-01T05:36:54.622Z,10.20
2023-05-01T05:39:24.648Z,9.32
2023-05-01T05:41:53.652Z,11.75
2023-05-01T05:44:20.810Z,10.57
2023-05-01T05:46:47.721Z,13.70
2023-05-01T05:49:14.754Z,9.88
2023-05-01T05:51:41.868Z,20.95
2023-05-01T05:54:08.882Z,9.82
2023-05-01T05:56:36.090Z,12.70
2023-05-01T05:59:04.592Z,12.35
2023-05-01T06:01:32.319Z,13.82
2023-05-01T06:03:59.477Z,12.77
2023-05-01T06:06:27.642Z,14.35
2023-05-01T06:08:54.801Z,13.63
2023-05-01T06:11:22.419Z,15.25
2023-05-01T06:13:55.280Z,16.50
2023-05-01T06:16:25.616Z,14.82
2023-05-01T06:18:53.450Z,15.80
2023-05-01T06:21:20.418Z,16.75
2023-05-01T06:23:55.465Z,18.10
2023-05-01T06:26:26.352Z,18.02
2023-05-01T06:28:55.479Z,19.00
2023-05-01T06:31:22.414Z,16.90
2023-05-01T06:33:50.224Z,19.92
2023-05-01T06:36:17.262Z,19.35
2023-05-01T06:38:48.666Z,18.92
2023-05-01T06:41:16.865Z,20.10
2023-05-01T06:43:43.806Z,19.27
2023-05-01T06:46:10.982Z,20.90
2023-05-01T06:48:38.322Z,19.67
2023-05-01T06:51:05.502Z,23.17
2023-05-01T06:53:32.383Z,20.15
2023-05-01T06:55:59.466Z,22.92
2023-05-01T06:58:27.337Z,21.77
2023-05-01T07:00:54.620Z,23.25
2023-05-01T07:03:21.761Z,23.27
2023-05-01T07:05:48.844Z,23.40
2023-05-01T07:08:16.047Z,21.48
2023-05-01T07:10:43.627Z,22.63
2023-05-01T07:13:10.508Z,22.83
2023-05-01T07:15:37.853Z,23.42
2023-05-01T07:18:07.967Z,24.08
2023-05-01T07:20:35.069Z,27.42
2023-05-01T07:23:01.897Z,22.10
2023-05-01T07:25:31.229Z,22.85
2023-05-01T07:28:00.763Z,23.05
2023-05-01T07:37:55.069Z,19.65
2023-05-01T07:40:22.214Z,19.52
2023-05-01T07:42:49.340Z,19.85
2023-05-01T07:45:16.729Z,19.25
2023-05-01T07:47:43.663Z,18.40
2023-05-01T07:50:11.713Z,20.08
2023-05-01T07:52:39.656Z,22.33
2023-05-01T07:55:07.315Z,21.75
2023-05-01T07:57:35.495Z,20.35
2023-05-01T08:00:02.302Z,20.50
2023-05-01T08:02:29.514Z,20.58
2023-05-01T08:04:56.620Z,19.30
2023-05-01T08:07:23.480Z,21.15
2023-05-01T08:09:50.626Z,20.45
2023-05-01T08:12:17.561Z,27.00
2023-05-01T08:14:44.622Z,21.15
2023-05-01T08:17:11.704Z,19.90
2023-05-01T08:19:38.736Z,19.50
2023-05-01T08:22:05.623Z,19.27
2023-05-01T08:24:32.384Z,19.75
2023-05-01T08:26:59.524Z,18.92
2023-05-01T08:29:26.505Z,19.83
2023-05-01T08:31:53.660Z,18.55
2023-05-01T08:34:20.617Z,18.75
2023-05-01T08:36:47.636Z,17.42
2023-05-01T08:39:15.536Z,18.52
2023-05-01T08:41:46.983Z,18.63
2023-05-01T08:44:16.707Z,17.65
2023-05-01T08:46:46.511Z,18.38
2023-05-01T08:49:17.127Z,17.30
2023-05-01T08:51:50.037Z,16.52
2023-05-01T08:54:19.723Z,16.30
2023-05-01T08:56:53.430Z,14.98
2023-05-01T08:59:23.813Z,14.50
2023-05-01T09:01:52.334Z,14.38
2023-05-01T09:04:19.608Z,16.92
2023-05-01T09:06:46.842Z,16.75
2023-05-01T09:09:13.652Z,17.02
2023-05-01T09:11:43.075Z,16.83
2023-05-01T09:14:09.833Z,17.00
2023-05-01T09:16:37.040Z,18.48
2023-05-01T09:19:03.979Z,24.30
2023-05-01T09:21:32.075Z,17.95
2023-05-01T09:23:58.951Z,16.63
2023-05-01T09:26:26.839Z,17.08
2023-05-01T09:28:58.014Z,17.90
2023-05-01T09:31:29.663Z,18.60
2023-05-01T09:33:58.508Z,18.15
2023-05-01T09:36:27.951Z,16.58
2023-05-01T09:38:54.976Z,16.60
2023-05-01T09:41:22.863Z,16.42
2023-05-01T09:43:54.819Z,15.85
2023-05-01T09:46:24.321Z,16.70
2023-05-01T09:49:03.308Z,16.60
2023-05-01T09:51:32.860Z,16.67
2023-05-01T09:54:02.171Z,18.05
2023-05-01T09:56:31.673Z,14.50
2023-05-01T09:59:14.199Z,14.52
2023-05-01T10:01:46.553Z,18.13
2023-05-01T10:04:14.323Z,13.90
2023-05-01T10:06:42.134Z,11.93
2023-05-01T10:09:17.596Z,11.93
2023-05-01T10:11:49.342Z,14.30
2023-05-01T10:14:16.624Z,12.23
2023-05-01T10:16:44.687Z,11.88
2023-05-01T10:19:12.651Z,12.15
2023-05-01T10:21:39.667Z,12.02
2023-05-01T10:24:08.278Z,13.18
2023-05-01T10:26:36.444Z,13.13
2023-05-01T10:29:04.373Z,13.48
2023-05-01T10:31:33.062Z,12.25
2023-05-01T10:34:02.169Z,12.48
2023-05-01T10:36:44.754Z,14.07
2023-05-01T10:39:46.672Z,13.68
2023-05-01T10:42:32.185Z,13.13
2023-05-01T10:45:28.284Z,13.85
2023-05-01T10:47:55.497Z,13.55
2023-05-01T10:50:22.466Z,14.43
2023-05-01T10:53:20.176Z,14.07
2023-05-01T10:55:49.230Z,14.93
2023-05-01T10:58:41.000Z,15.20
2023-05-01T11:01:36.148Z,15.85
2023-05-01T11:04:07.687Z,15.02
2023-05-01T11:06:36.810Z,17.70
2023-05-01T11:11:51.233Z,12.43
2023-05-01T11:14:18.066Z,12.98
2023-05-01T11:16:46.449Z,14.07
2023-05-01T11:19:22.762Z,16.57
2023-05-01T11:21:54.184Z,15.50
2023-05-01T11:24:21.028Z,14.73
2023-05-01T11:26:49.189Z,14.25
2023-05-01T11:29:16.086Z,13.00
2023-05-01T11:31:48.257Z,14.40
2023-05-01T11:34:15.834Z,14.75
2023-05-01T11:36:50.317Z,19.15
2023-05-01T11:39:17.855Z,17.42
2023-05-01T11:41:46.728Z,18.35
2023-05-01T11:44:18.272Z,16.27
2023-05-01T11:46:45.714Z,16.67
2023-05-01T11:49:12.925Z,17.88
2023-05-01T11:51:40.076Z,18.35
2023-05-01T11:54:09.544Z,14.68
2023-05-01T11:56:37.739Z,17.17
2023-05-01T11:59:16.515Z,16.02
2023-05-01T12:01:47.127Z,15.45
2023-05-01T12:04:31.563Z,15.85
2023-05-01T12:06:59.062Z,14.80
2023-05-01T12:09:27.397Z,19.48
2023-05-01T12:11:54.734Z,16.07
2023-05-01T12:14:22.321Z,16.10
2023-05-01T12:16:49.648Z,17.05
2023-05-01T12:19:17.551Z,18.63
2023-05-01T12:21:44.784Z,16.30
2023-05-01T12:24:15.002Z,16.35
2023-05-01T12:26:42.797Z,18.83
2023-05-01T12:29:10.178Z,16.02
2023-05-01T12:31:45.720Z,16.20
2023-05-01T12:34:12.647Z,17.17
2023-05-01T12:36:39.576Z,17.17
2023-05-01T12:39:14.301Z,16.55
2023-05-01T12:41:49.209Z,16.30
2023-05-01T12:44:18.490Z,16.80
2023-05-01T12:49:21.346Z,15.10
2023-05-01T12:51:49.845Z,16.65
2023-05-01T12:54:24.280Z,15.53
2023-05-01T12:56:54.825Z,14.70
2023-05-01T12:59:27.295Z,15.45
2023-05-01T13:02:02.155Z,16.48
2023-05-01T13:04:29.575Z,15.88
2023-05-01T13:06:57.747Z,14.73
2023-05-01T13:09:30.817Z,12.60
2023-05-01T13:12:02.278Z,14.70
2023-05-01T13:14:40.571Z,15.27
2023-05-01T13:17:11.724Z,15.40
2023-05-01T13:19:39.435Z,16.73
2023-05-01T13:22:06.720Z,18.33
2023-05-01T13:24:39.650Z,18.95
2023-05-01T13:27:08.657Z,17.35
2023-05-01T13:29:36.313Z,19.38
2023-05-01T13:32:06.766Z,17.15
2023-05-01T13:34:34.617Z,15.95
2023-05-01T13:37:02.695Z,16.20
2023-05-01T13:39:29.748Z,16.10
2023-05-01T13:41:56.606Z,17.13
2023-05-01T13:44:23.622Z,15.35
2023-05-01T13:46:50.697Z,20.15
2023-05-01T13:49:22.745Z,18.33
2023-05-01T13:51:49.967Z,17.05
2023-05-01T13:54:17.858Z,16.85
2023-05-01T13:56:44.659Z,16.13
2023-05-01T13:59:11.710Z,16.60
2023-05-01T14:01:45.939Z,16.38
2023-05-01T14:04:21.695Z,21.73
2023-05-01T14:06:49.055Z,18.83
2023-05-01T14:09:19.413Z,16.15
2023-05-01T14:11:48.059Z,13.88
2023-05-01T14:14:18.521Z,17.88
2023-05-01T14:16:50.459Z,11.30
2023-05-01T14:19:18.315Z,12.63
2023-05-01T14:21:45.706Z,11.65
2023-05-01T14:24:14.817Z,16.05
2023-05-01T14:26:44.334Z,12.30
2023-05-01T14:31:45.070Z,11.55
2023-05-01T14:34:17.365Z,10.15
2023-05-01T14:36:44.122Z,9.38
2023-05-01T14:39:12.429Z,8.77
2023-05-01T14:41:42.910Z,11.02
2023-05-01T14:44:18.635Z,10.35
2023-05-01T14:46:52.370Z,12.27
2023-05-01T14:49:22.329Z,9.05
2023-05-01T14:51:51.632Z,8.63
2023-05-01T14:54:27.502Z,9.02
2023-05-01T14:57:01.682Z,11.73
2023-05-01T14:59:31.513Z,10.55
2023-05-01T15:01:58.660Z,11.60
2023-05-01T15:04:26.520Z,12.20
2023-05-01T15:06:53.693Z,10.77
2023-05-01T15:09:20.576Z,11.43
2023-05-01T15:11:47.672Z,12.05
2023-05-01T15:14:14.765Z,11.68
2023-05-01T15:16:41.854Z,10.23
2023-05-01T15:19:08.734Z,9.75
2023-05-01T15:21:35.805Z,9.25
2023-05-01T15:24:02.876Z,13.75
2023-05-01T15:26:29.921Z,11.57
2023-05-01T15:28:56.916Z,12.57
2023-05-01T15:31:24.051Z,14.73
2023-05-01T15:33:51.054Z,15.63
2023-05-01T15:36:18.756Z,14.55
2023-05-01T15:38:47.282Z,15.10
2023-05-01T15:41:15.928Z,14.00
2023-05-01T15:46:11.734Z,12.15
2023-05-01T15:48:38.842Z,14.82
2023-05-01T15:51:05.860Z,10.70
2023-05-01T15:53:32.806Z,9.68
2023-05-01T15:55:59.873Z,12.07
2023-05-01T15:58:26.882Z,11.30
2023-05-01T16:00:53.673Z,8.63
2023-05-01T16:03:20.942Z,10.60
2023-05-01T16:05:48.126Z,10.38
2023-05-01T16:08:15.995Z,7.60
2023-05-01T16:10:42.910Z,9.48
2023-05-01T16:13:10.002Z,7.43
2023-05-01T16:15:37.987Z,9.70
2023-05-01T16:18:05.332Z,11.73
2023-05-01T16:20:41.739Z,8.77
2023-05-01T16:23:08.921Z,5.85
2023-05-01T16:25:35.910Z,12.18
2023-05-01T16:28:06.030Z,10.27
2023-05-01T16:30:32.882Z,7.80
2023-05-01T16:33:03.064Z,13.82
2023-05-01T16:35:31.744Z,8.52
2023-05-01T16:37:59.903Z,11.55
2023-05-01T16:40:26.751Z,12.07
2023-05-01T16:42:54.866Z,7.45
2023-05-01T16:45:22.155Z,7.22
2023-05-01T16:47:48.975Z,6.53
2023-05-01T16:50:17.108Z,7.40
2023-05-01T16:52:44.131Z,7.07
2023-05-01T16:55:11.563Z,7.70
2023-05-01T16:57:38.563Z,11.23
2023-05-01T17:00:09.316Z,6.07
2023-05-01T17:02:36.941Z,5.55
2023-05-01T17:05:04.243Z,7.50
2023-05-01T17:07:31.640Z,10.07
2023-05-01T17:09:59.106Z,7.45
2023-05-01T17:12:27.710Z,9.27
2023-05-01T17:14:54.959Z,6.65
2023-05-01T17:17:22.382Z,5.55
2023-05-01T17:19:49.579Z,6.03
2023-05-01T17:22:16.513Z,9.38
2023-05-01T17:24:43.420Z,6.15
2023-05-01T17:27:10.804Z,5.90
2023-05-01T17:29:37.607Z,11.00
2023-05-01T17:32:05.007Z,7.05
2023-05-01T17:34:32.109Z,6.80
2023-05-01T17:36:59.044Z,7.93
2023-05-01T17:39:28.066Z,14.73
2023-05-01T17:41:55.369Z,8.80
2023-05-01T17:44:22.070Z,9.77
2023-05-01T17:46:48.932Z,8.18
2023-05-01T17:49:16.220Z,6.95
2023-05-01T17:51:45.139Z,9.18
2023-05-01T17:54:12.213Z,5.47
2023-05-01T17:56:39.140Z,7.63
2023-05-01T17:59:06.208Z,6.95
2023-05-01T18:01:34.574Z,8.80
2023-05-01T18:04:01.877Z,11.07
2023-05-01T18:06:29.006Z,7.03
2023-05-01T18:08:56.025Z,6.13
2023-05-01T18:11:23.116Z,6.97
2023-05-01T18:13:50.452Z,8.80
2023-05-01T18:16:18.560Z,14.25
2023-05-01T18:18:46.983Z,9.07
2023-05-01T18:21:14.620Z,7.93
2023-05-01T18:23:41.564Z,17.23
2023-05-01T18:26:08.696Z,9.13
2023-05-01T18:28:35.702Z,14.10
2023-05-01T18:31:03.695Z,10.18
2023-05-01T18:33:30.692Z,8.13
2023-05-01T18:35:58.020Z,9.02
2023-05-01T18:38:26.348Z,10.25
2023-05-01T18:40:55.031Z,11.55
2023-05-01T18:43:22.085Z,12.25
2023-05-01T18:45:49.109Z,8.73
2023-05-01T18:48:16.333Z,10.02
2023-05-01T18:50:47.162Z,11.07
2023-05-01T18:53:18.506Z,12.18
2023-05-01T18:55:45.577Z,8.75
2023-05-01T18:58:12.542Z,8.32
2023-05-01T19:00:39.261Z,7.13
2023-05-01T19:03:07.231Z,10.32
2023-05-01T19:05:34.299Z,14.00
2023-05-01T19:08:05.088Z,15.60
2023-05-01T19:10:31.963Z,14.02
2023-05-01T19:13:00.196Z,9.65
2023-05-01T19:15:27.231Z,18.13
2023-05-01T19:17:54.776Z,14.10
2023-05-01T19:20:21.970Z,13.65
2023-05-01T19:22:48.865Z,8.25
2023-05-01T19:25:15.977Z,11.75
2023-05-01T19:27:42.884Z,9.23
2023-05-01T19:30:09.875Z,10.65
2023-05-01T19:32:38.898Z,11.30
2023-05-01T19:35:06.403Z,11.25
2023-05-01T19:37:33.456Z,9.68
2023-05-01T19:40:00.493Z,15.50
2023-05-01T19:42:27.685Z,10.60
2023-05-01T19:44:54.665Z,13.82
2023-05-01T19:47:21.789Z,11.63
2023-05-01T19:49:48.738Z,11.55
2023-05-01T19:52:15.822Z,11.98
2023-05-01T19:54:44.738Z,15.80
2023-05-01T19:57:12.919Z,15.70
2023-05-01T19:59:41.224Z,13.95
2023-05-01T20:02:08.185Z,11.00
2023-05-01T20:04:35.057Z,11.43
2023-05-01T20:07:04.479Z,16.88
2023-05-01T20:09:31.818Z,17.70
2023-05-01T20:11:58.834Z,13.30
2023-05-01T20:14:25.532Z,11.20
2023-05-01T20:16:53.052Z,11.48
2023-05-01T20:19:20.002Z,10.30
2023-05-01T20:21:47.093Z,18.42
2023-05-01T20:24:14.009Z,16.17
2023-05-01T20:26:41.164Z,12.93
2023-05-01T20:29:09.311Z,12.07
2023-05-01T20:31:36.524Z,12.43
2023-05-01T20:34:03.420Z,12.73
2023-05-01T20:36:30.543Z,11.13
2023-05-01T20:38:57.976Z,13.65
2023-05-01T20:41:25.737Z,16.67
2023-05-01T20:43:52.955Z,12.13
2023-05-01T20:46:20.326Z,9.55
2023-05-01T20:48:47.466Z,7.88
2023-05-01T20:51:18.028Z,13.00
2023-05-01T20:53:45.126Z,18.83
2023-05-01T20:56:12.265Z,9.65
2023-05-01T20:58:39.223Z,14.20
2023-05-01T21:01:06.638Z,13.25
2023-05-01T21:03:33.835Z,13.80
2023-05-01T21:06:01.923Z,15.88
2023-05-01T21:08:29.590Z,14.55
2023-05-01T21:10:56.746Z,16.08
2023-05-01T21:13:24.851Z,15.75
2023-05-01T21:15:52.504Z,17.42
2023-05-01T21:18:23.583Z,10.50
2023-05-01T21:20:50.570Z,13.43
2023-05-01T21:23:17.781Z,15.25
2023-05-01T21:25:44.922Z,15.88
2023-05-01T21:28:13.735Z,13.95
2023-05-01T21:30:41.064Z,9.80
2023-05-01T21:33:13.133Z,13.07
2023-05-01T21:35:45.100Z,12.07
2023-05-01T21:38:12.458Z,12.73
2023-05-01T21:40:43.026Z,15.77
2023-05-01T21:43:10.124Z,11.52
2023-05-01T21:45:40.397Z,16.77
2023-05-01T21:48:09.246Z,15.00
2023-05-01T21:50:38.123Z,14.75
2023-05-01T21:53:07.196Z,15.70
2023-05-01T21:55:34.226Z,14.32
2023-05-01T21:58:02.215Z,11.02
2023-05-01T22:00:29.902Z,13.82
2023-05-01T22:02:56.903Z,15.20
2023-05-01T22:05:24.010Z,12.98
2023-05-01T22:07:52.466Z,12.35
2023-05-01T22:10:19.746Z,23.15
2023-05-01T22:12:49.274Z,13.73
2023-05-01T22:15:16.598Z,16.63
2023-05-01T22:17:44.752Z,13.90
2023-05-01T22:20:11.877Z,22.00
2023-05-01T22:22:40.512Z,19.08
2023-05-01T22:25:08.739Z,15.15
2023-05-01T22:27:36.311Z,15.38
2023-05-01T22:30:05.029Z,13.32
2023-05-01T22:32:32.333Z,12.98
2023-05-01T22:34:59.320Z,20.95
2023-05-01T22:37:26.311Z,14.70
2023-05-01T22:39:53.592Z,16.65
2023-05-01T22:42:20.852Z,11.95
2023-05-01T22:44:48.213Z,16.02
2023-05-01T22:47:15.731Z,13.98
2023-05-01T22:49:42.857Z,14.93
2023-05-01T22:52:09.728Z,19.45
2023-05-01T22:54:37.681Z,15.70
2023-05-01T22:57:04.694Z,13.57
2023-05-01T22:59:31.487Z,13.07
2023-05-01T23:01:58.457Z,13.82
2023-05-01T23:04:25.413Z,16.58
2023-05-01T23:06:52.604Z,21.40
2023-05-01T23:09:19.469Z,18.33
2023-05-01T23:11:47.702Z,17.75
2023-05-01T23:14:18.268Z,13.57
2023-05-01T23:16:45.259Z,28.30
2023-05-01T23:19:23.258Z,16.17
2023-05-01T23:21:51.796Z,19.45
2023-05-01T23:24:20.297Z,15.70
2023-05-01T23:26:47.417Z,20.58
2023-05-01T23:29:16.013Z,16.70
2023-05-01T23:31:47.612Z,18.60
2023-05-01T23:34:19.335Z,17.90
2023-05-01T23:36:47.160Z,19.58
2023-05-01T23:39:14.600Z,15.90
2023-05-01T23:41:42.117Z,18.55
2023-05-01T23:44:09.991Z,14.73
2023-05-01T23:46:37.595Z,20.30
2023-05-01T23:49:04.915Z,14.68
2023-05-01T23:51:32.105Z,16.02
2023-05-01T23:53:59.184Z,17.02
2023-05-01T23:56:26.377Z,13.90
2023-05-01T23:58:53.150Z,15.38
